Time;durP1;ratioP1;P1;durP2;ratioP2;P2;SDS_P1;SDS_P2;PMS_P1;PMS_P2;Temp;Humidity;BMP_temperature;BMP_pressure;BME280_temperature;BME280_humidity;BME280_pressure;Samples;Min_cycle;Max_cycle;Signal;HPM_P1;HPM_P2
2021/04/30 00:01:58;;;;;;;5.55;4.53;;;11.30;87.80;;;;;;5079249;28;20264;-66
2021/04/30 00:04:24;;;;;;;4.95;4.55;;;11.20;87.70;;;;;;5072413;28;20198;-66
2021/04/30 00:06:52;;;;;;;5.60;4.25;;;11.20;87.40;;;;;;5083302;28;20228;-68
2021/04/30 00:09:18;;;;;;;5.28;4.57;;;11.30;87.70;;;;;;5092968;28;20196;-66
2021/04/30 00:11:45;;;;;;;4.75;4.18;;;11.30;87.80;;;;;;5082523;28;20581;-66
2021/04/30 00:14:11;;;;;;;4.63;4.05;;;11.30;88.20;;;;;;5072271;28;20259;-66
2021/04/30 00:16:39;;;;;;;5.22;4.18;;;11.40;87.70;;;;;;5080180;28;20189;-67
2021/04/30 00:19:07;;;;;;;5.90;4.40;;;11.40;87.50;;;;;;5092470;28;20195;-66
2021/04/30 00:21:34;;;;;;;5.43;4.80;;;11.40;87.40;;;;;;5085061;28;20221;-66
2021/04/30 00:24:01;;;;;;;4.63;4.15;;;11.40;88.30;;;;;;5072244;28;20249;-66
2021/04/30 00:26:28;;;;;;;5.28;4.00;;;11.40;88.80;;;;;;5077195;28;20638;-66
2021/04/30 00:28:55;;;;;;;8.32;6.43;;;11.40;89.20;;;;;;5092434;28;20200;-66
2021/04/30 00:31:21;;;;;;;5.63;4.68;;;11.50;89.20;;;;;;5088200;28;20197;-66
2021/04/30 00:33:48;;;;;;;7.65;5.07;;;11.50;88.80;;;;;;5072041;28;20243;-66
2021/04/30 00:36:14;;;;;;;5.65;4.15;;;11.60;88.30;;;;;;5073630;28;20232;-66
2021/04/30 00:38:41;;;;;;;5.28;4.10;;;11.60;87.80;;;;;;5092477;28;20193;-67
2021/04/30 00:41:10;;;;;;;5.22;4.53;;;11.60;86.20;;;;;;5091557;28;20196;-66
2021/04/30 00:43:36;;;;;;;6.00;4.85;;;11.60;86.60;;;;;;5072436;28;20485;-66
2021/04/30 00:46:03;;;;;;;5.60;4.38;;;11.60;86.80;;;;;;5089201;28;20514;-68
2021/04/30 00:48:30;;;;;;;5.47;4.75;;;11.60;87.30;;;;;;5092269;28;20262;-66
2021/04/30 00:50:57;;;;;;;6.03;5.10;;;11.50;86.30;;;;;;5075839;28;20240;-66
2021/04/30 00:53:23;;;;;;;8.23;5.60;;;11.50;86.90;;;;;;5072491;28;20274;-66
2021/04/30 00:55:50;;;;;;;5.53;4.60;;;11.50;87.00;;;;;;5089287;28;20640;-66
2021/04/30 00:58:18;;;;;;;5.70;4.50;;;11.50;87.30;;;;;;5096260;28;20189;-67
2021/04/30 01:00:44;;;;;;;5.38;4.85;;;11.60;87.70;;;;;;5082825;28;20215;-67
2021/04/30 01:03:11;;;;;;;7.93;4.55;;;11.50;87.40;;;;;;5076576;28;20224;-66
2021/04/30 01:05:38;;;;;;;5.85;4.85;;;11.50;87.10;;;;;;5094615;28;20181;-66
2021/04/30 01:08:06;;;;;;;6.32;4.90;;;11.50;87.80;;;;;;5095619;28;20676;-70
2021/04/30 01:10:33;;;;;;;4.75;4.25;;;11.50;87.50;;;;;;5095994;28;20189;-66
2021/04/30 01:13:00;;;;;;;7.10;4.93;;;11.50;87.90;;;;;;5095476;28;20196;-66
2021/04/30 01:15:28;;;;;;;8.27;4.35;;;11.50;88.10;;;;;;5095836;28;20185;-69
2021/04/30 01:17:55;;;;;;;6.28;4.45;;;11.40;87.70;;;;;;5084885;28;20194;-66
2021/04/30 01:20:22;;;;;;;6.13;5.13;;;11.40;88.20;;;;;;5075522;28;20197;-66
2021/04/30 01:22:51;;;;;;;5.57;4.90;;;11.40;89.50;;;;;;5083898;28;20764;-66
2021/04/30 01:25:20;;;;;;;4.95;4.32;;;11.40;89.60;;;;;;5095680;28;20189;-66
2021/04/30 01:27:48;;;;;;;5.82;5.18;;;11.40;89.60;;;;;;5087237;28;20281;-66
2021/04/30 01:30:18;;;;;;;5.90;5.30;;;11.40;89.50;;;;;;5075518;28;20315;-66
2021/04/30 01:32:45;;;;;;;5.68;4.10;;;11.40;90.10;;;;;;5082012;28;20197;-67
2021/04/30 01:35:18;;;;;;;4.70;4.20;;;11.40;88.30;;;;;;5095910;28;20189;-66
2021/04/30 01:37:47;;;;;;;5.72;4.75;;;11.40;87.90;;;;;;5088769;28;20221;-67
2021/04/30 01:40:16;;;;;;;4.20;3.72;;;11.40;88.20;;;;;;5077477;28;20656;-66
2021/04/30 01:43:00;;;;;;;4.60;4.20;;;11.40;88.40;;;;;;5095278;28;20213;-67
2021/04/30 01:45:29;;;;;;;4.70;3.75;;;11.50;88.60;;;;;;5090720;28;20182;-66
2021/04/30 01:47:56;;;;;;;4.85;4.05;;;11.50;88.30;;;;;;5075097;28;20201;-66
2021/04/30 01:50:22;;;;;;;4.40;3.15;;;11.50;88.20;;;;;;5075833;28;20201;-66
2021/04/30 01:52:49;;;;;;;5.45;3.80;;;11.60;87.70;;;;;;5075069;28;20601;-72
2021/04/30 01:55:16;;;;;;;4.85;3.85;;;11.50;86.40;;;;;;5075069;28;20190;-66
2021/04/30 01:57:47;;;;;;;5.28;3.65;;;11.60;86.90;;;;;;5095118;28;20189;-67
2021/04/30 02:00:22;;;;;;;4.10;3.70;;;11.50;87.90;;;;;;5094435;28;20200;-69
2021/04/30 02:02:49;;;;;;;4.63;4.13;;;11.50;88.10;;;;;;5074679;28;20221;-66
2021/04/30 02:05:17;;;;;;;5.50;3.92;;;11.60;88.10;;;;;;5074671;28;20193;-68
2021/04/30 02:07:43;;;;;;;4.72;3.60;;;11.50;88.50;;;;;;5093797;28;20242;-67
2021/04/30 02:10:16;;;;;;;5.43;3.88;;;11.60;89.00;;;;;;5090284;28;20189;-66
2021/04/30 02:12:44;;;;;;;4.93;4.43;;;11.60;89.30;;;;;;5094978;28;20201;-66
2021/04/30 02:15:12;;;;;;;4.93;4.43;;;11.60;89.60;;;;;;5078393;28;20198;-66
2021/04/30 02:17:39;;;;;;;5.13;3.92;;;11.60;89.10;;;;;;5074481;28;20216;-66
2021/04/30 02:20:09;;;;;;;4.68;4.00;;;11.60;88.80;;;;;;5088842;28;20185;-66
2021/04/30 02:22:35;;;;;;;6.95;4.47;;;11.50;89.40;;;;;;5092939;28;20220;-66
2021/04/30 02:25:02;;;;;;;5.28;3.75;;;11.50;89.40;;;;;;5094548;28;20193;-66
2021/04/30 02:27:30;;;;;;;5.35;3.92;;;11.50;89.30;;;;;;5087343;28;20200;-67
2021/04/30 02:29:56;;;;;;;5.72;4.47;;;11.50;88.80;;;;;;5074330;28;20190;-67
2021/04/30 02:32:23;;;;;;;5.07;4.03;;;11.50;88.80;;;;;;5079150;28;20212;-66
2021/04/30 02:34:52;;;;;;;4.75;4.07;;;11.50;89.20;;;;;;5094393;28;20200;-66
2021/04/30 02:37:18;;;;;;;5.50;4.05;;;11.50;89.20;;;;;;5092369;28;20281;-67
2021/04/30 02:39:45;;;;;;;4.90;4.20;;;11.50;89.80;;;;;;5094587;28;20193;-66
2021/04/30 02:42:12;;;;;;;5.00;3.92;;;11.50;90.20;;;;;;5088988;28;20271;-67
2021/04/30 02:44:39;;;;;;;4.97;4.47;;;11.50;90.30;;;;;;5074353;28;20190;-66
2021/04/30 02:47:07;;;;;;;6.32;4.50;;;11.50;90.50;;;;;;5076734;28;20192;-66
2021/04/30 02:49:42;;;;;;;5.50;5.00;;;11.40;90.50;;;;;;5094240;28;20253;-66
2021/04/30 02:52:12;;;;;;;4.95;4.40;;;11.40;90.70;;;;;;5085653;28;20265;-67
2021/04/30 02:54:41;;;;;;;5.50;4.88;;;11.50;90.60;;;;;;5073643;28;20196;-67
2021/04/30 02:57:07;;;;;;;5.43;4.70;;;11.50;90.90;;;;;;5080259;28;20284;-66
2021/04/30 02:59:34;;;;;;;6.07;4.90;;;11.50;90.80;;;;;;5094055;28;20197;-66
2021/04/30 03:02:02;;;;;;;6.72;4.97;;;11.50;90.80;;;;;;5088012;28;20209;-66
2021/04/30 03:04:29;;;;;;;4.10;3.70;;;11.50;90.70;;;;;;5073676;28;20652;-66
2021/04/30 03:06:55;;;;;;;5.82;4.63;;;11.60;90.70;;;;;;5089780;28;20181;-66
2021/04/30 03:09:22;;;;;;;5.78;5.18;;;11.60;90.60;;;;;;5093910;28;20193;-66
2021/04/30 03:11:49;;;;;;;5.88;4.50;;;11.60;90.60;;;;;;5078484;28;20186;-66
2021/04/30 03:14:15;;;;;;;5.95;4.72;;;11.60;90.40;;;;;;5075895;28;20193;-67
2021/04/30 03:16:42;;;;;;;7.18;5.65;;;11.50;90.20;;;;;;5093755;28;20197;-66
2021/04/30 03:19:10;;;;;;;9.65;5.95;;;11.50;90.50;;;;;;5090965;28;20239;-67
2021/04/30 03:21:37;;;;;;;5.95;4.60;;;11.50;90.70;;;;;;5073306;28;20578;-68
2021/04/30 03:24:04;;;;;;;5.40;4.80;;;11.50;91.00;;;;;;5072923;28;20193;-66
2021/04/30 03:26:30;;;;;;;7.45;4.97;;;11.50;91.00;;;;;;5073420;28;20193;-66
2021/04/30 03:28:57;;;;;;;6.07;5.18;;;11.40;91.20;;;;;;5073251;28;20193;-66
2021/04/30 03:31:23;;;;;;;6.18;4.70;;;11.40;91.60;;;;;;5072958;28;20193;-66
2021/04/30 03:33:50;;;;;;;6.93;5.07;;;11.40;91.40;;;;;;5079009;28;20192;-66
2021/04/30 03:36:19;;;;;;;6.53;4.75;;;11.40;91.30;;;;;;5093029;28;20225;-66
2021/04/30 03:38:46;;;;;;;5.22;4.72;;;11.40;91.10;;;;;;5087492;28;20243;-66
2021/04/30 03:41:12;;;;;;;4.43;4.03;;;11.50;91.00;;;;;;5072726;28;20194;-68
2021/04/30 03:43:39;;;;;;;4.28;3.88;;;11.50;90.90;;;;;;5076022;28;20227;-66
2021/04/30 03:46:05;;;;;;;8.27;4.97;;;11.50;90.50;;;;;;5093329;28;20189;-66
2021/04/30 03:48:32;;;;;;;4.80;4.40;;;11.40;90.40;;;;;;5076353;28;20190;-66
2021/04/30 03:50:58;;;;;;;6.70;4.80;;;11.40;90.50;;;;;;5072851;28;20595;-66
2021/04/30 03:53:26;;;;;;;5.10;4.60;;;11.30;90.80;;;;;;5087089;28;20189;-66
2021/04/30 03:55:53;;;;;;;8.65;4.55;;;11.10;91.40;;;;;;5092912;28;20597;-66
2021/04/30 03:58:19;;;;;;;4.97;4.00;;;10.90;91.90;;;;;;5078610;28;20186;-66
2021/04/30 04:00:46;;;;;;;4.28;3.78;;;10.90;91.70;;;;;;5072691;28;20193;-66
2021/04/30 04:03:13;;;;;;;5.88;5.13;;;10.90;91.70;;;;;;5073732;28;20679;-67
2021/04/30 04:05:39;;;;;;;5.40;4.55;;;10.90;91.50;;;;;;5072980;28;20235;-67
2021/04/30 04:08:08;;;;;;;6.88;5.28;;;10.90;90.90;;;;;;5086582;28;20196;-66
2021/04/30 04:10:36;;;;;;;5.57;4.88;;;10.80;90.80;;;;;;5093048;28;20200;-67
2021/04/30 04:13:13;;;;;;;7.32;6.05;;;10.70;91.10;;;;;;5079752;28;20193;-66
2021/04/30 04:15:40;;;;;;;6.25;4.78;;;10.70;90.80;;;;;;5072998;28;20596;-66
2021/04/30 04:18:07;;;;;;;4.95;4.43;;;10.60;90.50;;;;;;5073787;28;20182;-67
2021/04/30 04:20:33;;;;;;;5.18;4.68;;;10.60;90.90;;;;;;5072624;28;20197;-68
2021/04/30 04:23:00;;;;;;;5.28;4.75;;;10.60;91.50;;;;;;5087362;28;20216;-66
2021/04/30 04:25:26;;;;;;;6.22;5.45;;;10.50;91.70;;;;;;5092900;28;20200;-66
2021/04/30 04:27:54;;;;;;;5.13;4.63;;;10.60;91.90;;;;;;5079230;28;20648;-66
2021/04/30 04:30:21;;;;;;;5.80;4.40;;;10.70;91.90;;;;;;5072375;28;20185;-67
2021/04/30 04:32:47;;;;;;;6.60;5.13;;;10.80;91.90;;;;;;5084276;28;20647;-67
2021/04/30 04:35:14;;;;;;;9.35;5.28;;;10.80;91.80;;;;;;5092936;28;20554;-66
2021/04/30 04:37:41;;;;;;;6.38;4.82;;;10.90;91.90;;;;;;5081888;28;20221;-66
2021/04/30 04:40:09;;;;;;;7.85;5.22;;;11.00;91.90;;;;;;5072715;28;20600;-66
2021/04/30 04:42:36;;;;;;;5.60;4.40;;;11.10;91.60;;;;;;5081345;28;20213;-66
2021/04/30 04:45:04;;;;;;;7.18;4.43;;;11.20;91.60;;;;;;5090904;28;20185;-67
2021/04/30 04:47:31;;;;;;;6.85;4.07;;;11.20;91.50;;;;;;5092539;28;20189;-66
2021/04/30 04:49:57;;;;;;;5.05;4.55;;;11.30;91.10;;;;;;5088595;28;20219;-66
2021/04/30 04:52:24;;;;;;;5.60;4.80;;;11.30;90.80;;;;;;5072312;28;20644;-66
2021/04/30 04:54:50;;;;;;;5.35;4.57;;;11.40;90.90;;;;;;5073471;28;20189;-66
2021/04/30 04:57:17;;;;;;;6.00;4.72;;;11.40;90.80;;;;;;5072047;28;20193;-67
2021/04/30 04:59:43;;;;;;;5.80;4.40;;;11.40;90.80;;;;;;5072439;28;20251;-67
2021/04/30 05:02:11;;;;;;;4.80;4.10;;;11.50;90.80;;;;;;5092694;28;20306;-67
2021/04/30 05:04:37;;;;;;;8.07;4.80;;;11.50;90.70;;;;;;5092649;28;20612;-67
2021/04/30 05:07:04;;;;;;;10.15;4.53;;;11.60;91.00;;;;;;5072755;28;20212;-66
2021/04/30 05:09:30;;;;;;;5.50;4.53;;;11.60;91.00;;;;;;5073055;28;20193;-66
2021/04/30 05:11:57;;;;;;;5.75;4.40;;;11.60;91.10;;;;;;5072292;28;20202;-66
2021/04/30 05:14:23;;;;;;;5.00;4.45;;;11.60;90.60;;;;;;5089108;28;20185;-66
2021/04/30 05:16:50;;;;;;;5.28;4.78;;;11.60;90.70;;;;;;5089915;28;20201;-66
2021/04/30 05:19:17;;;;;;;5.82;4.93;;;11.60;90.50;;;;;;5087931;28;20197;-67
2021/04/30 05:21:46;;;;;;;11.88;9.70;;;11.60;90.80;;;;;;5090537;28;20244;-67
2021/04/30 05:24:14;;;;;;;9.48;6.68;;;11.60;90.60;;;;;;5089446;28;20212;-66
2021/04/30 05:26:41;;;;;;;9.75;5.47;;;11.60;90.70;;;;;;5090762;28;20193;-66
2021/04/30 05:29:07;;;;;;;5.82;5.13;;;11.70;90.90;;;;;;5087285;28;20185;-66
2021/04/30 05:31:37;;;;;;;6.72;6.03;;;11.80;90.80;;;;;;5090524;28;20655;-66
2021/04/30 05:34:04;;;;;;;5.80;4.90;;;11.80;90.90;;;;;;5086219;28;20204;-68
2021/04/30 05:36:32;;;;;;;7.10;4.93;;;11.90;90.70;;;;;;5089401;28;20213;-67
2021/04/30 05:38:58;;;;;;;10.45;5.30;;;11.90;90.90;;;;;;5090556;28;20658;-68
2021/04/30 05:41:26;;;;;;;9.10;5.63;;;12.00;91.00;;;;;;5089603;28;20207;-68
2021/04/30 05:43:53;;;;;;;5.80;4.88;;;12.10;91.00;;;;;;5094051;28;20197;-67
2021/04/30 05:46:19;;;;;;;8.77;5.00;;;12.20;91.10;;;;;;5091912;28;20239;-71
2021/04/30 05:48:47;;;;;;;6.03;5.13;;;12.20;90.50;;;;;;5094105;28;20222;-66
2021/04/30 05:51:16;;;;;;;6.40;5.75;;;12.30;90.10;;;;;;5093531;28;20185;-68
2021/04/30 05:53:44;;;;;;;6.70;5.53;;;12.40;89.90;;;;;;5092250;28;20193;-66
2021/04/30 05:56:10;;;;;;;6.55;5.45;;;12.40;89.30;;;;;;5094390;28;20226;-67
2021/04/30 05:58:37;;;;;;;6.75;6.13;;;12.50;89.40;;;;;;5091991;28;20193;-67
2021/04/30 06:01:05;;;;;;;6.18;5.57;;;12.60;89.20;;;;;;5093750;28;20185;-69
2021/04/30 06:03:31;;;;;;;8.10;6.47;;;12.60;88.30;;;;;;5093035;28;20319;-66
2021/04/30 06:05:58;;;;;;;6.15;5.30;;;12.70;89.10;;;;;;5093857;28;20231;-67
2021/04/30 06:08:24;;;;;;;6.75;6.05;;;12.80;89.50;;;;;;5093169;28;20269;-68
2021/04/30 06:10:54;;;;;;;6.38;5.78;;;12.80;89.10;;;;;;5093797;28;20248;-67
2021/04/30 06:13:20;;;;;;;7.50;5.47;;;12.90;88.90;;;;;;5087370;28;20185;-66
2021/04/30 06:15:47;;;;;;;7.93;6.75;;;13.00;88.40;;;;;;5092154;28;20682;-67
2021/04/30 06:18:14;;;;;;;6.10;5.03;;;13.10;87.50;;;;;;5091380;28;20188;-67
2021/04/30 06:20:40;;;;;;;6.80;6.03;;;13.20;86.90;;;;;;5093923;28;20186;-67
2021/04/30 06:23:07;;;;;;;6.22;5.63;;;13.30;86.00;;;;;;5093023;28;20691;-67
2021/04/30 06:25:33;;;;;;;7.72;6.63;;;13.30;85.00;;;;;;5090731;28;20277;-67
2021/04/30 06:28:00;;;;;;;7.55;6.78;;;13.40;85.10;;;;;;5093257;28;20285;-69
2021/04/30 06:30:27;;;;;;;10.30;8.18;;;13.50;85.60;;;;;;5093364;28;20229;-68
2021/04/30 06:32:53;;;;;;;10.07;8.18;;;13.60;85.50;;;;;;5092620;28;20275;-68
2021/04/30 06:35:19;;;;;;;12.82;8.85;;;13.80;85.40;;;;;;5093722;28;20185;-67
2021/04/30 06:37:46;;;;;;;11.70;9.40;;;14.00;86.00;;;;;;5093305;28;20304;-66
2021/04/30 06:40:13;;;;;;;13.00;8.70;;;14.20;84.70;;;;;;5093494;28;20243;-66
2021/04/30 06:42:39;;;;;;;14.47;9.07;;;14.40;83.80;;;;;;5091262;28;20300;-66
2021/04/30 06:45:08;;;;;;;9.80;8.27;;;14.50;80.90;;;;;;5093127;28;20451;-69
2021/04/30 06:47:35;;;;;;;7.90;7.20;;;14.60;79.80;;;;;;5093188;28;20211;-67
2021/04/30 06:50:01;;;;;;;11.00;8.70;;;14.70;78.50;;;;;;5092333;28;20450;-67
2021/04/30 06:52:27;;;;;;;9.33;7.70;;;14.70;76.80;;;;;;5092639;28;20283;-67
2021/04/30 06:54:54;;;;;;;10.27;9.17;;;14.80;76.70;;;;;;5094501;28;20523;-67
2021/04/30 06:57:20;;;;;;;11.37;9.30;;;14.80;76.70;;;;;;5088580;28;20522;-66
2021/04/30 06:59:47;;;;;;;9.02;8.00;;;14.90;77.50;;;;;;5081428;28;20814;-66
2021/04/30 07:02:14;;;;;;;12.97;7.63;;;15.00;76.60;;;;;;5082834;28;20216;-67
2021/04/30 07:04:41;;;;;;;7.77;6.37;;;15.10;74.70;;;;;;5094487;28;20452;-67
2021/04/30 07:07:07;;;;;;;8.40;6.90;;;15.10;73.20;;;;;;5092120;28;20435;-68
2021/04/30 07:09:33;;;;;;;8.17;7.40;;;15.00;70.90;;;;;;5094142;28;20542;-67
2021/04/30 07:12:00;;;;;;;7.72;6.90;;;14.90;72.00;;;;;;5087258;28;20435;-67
2021/04/30 07:14:26;;;;;;;8.97;7.13;;;15.00;73.70;;;;;;5073832;28;20588;-65
2021/04/30 07:16:53;;;;;;;7.37;6.50;;;15.00;72.80;;;;;;5074508;28;20955;-68
2021/04/30 07:19:21;;;;;;;7.17;6.30;;;15.10;73.90;;;;;;5074064;28;20751;-65
2021/04/30 07:21:47;;;;;;;8.07;7.23;;;15.20;74.40;;;;;;5091245;28;20478;-65
2021/04/30 07:24:16;;;;;;;9.60;5.97;;;15.30;74.50;;;;;;5080093;28;20439;-65
2021/04/30 07:26:42;;;;;;;8.07;7.07;;;15.50;74.40;;;;;;5083854;28;20431;-66
2021/04/30 07:29:09;;;;;;;10.23;7.33;;;15.60;73.30;;;;;;5092045;28;20438;-68
2021/04/30 07:31:35;;;;;;;9.50;6.80;;;15.70;73.00;;;;;;5093980;28;20500;-66
2021/04/30 07:34:02;;;;;;;9.53;8.53;;;15.80;72.30;;;;;;5093432;28;20443;-66
2021/04/30 07:36:29;;;;;;;10.30;8.43;;;16.00;72.00;;;;;;5093703;28;20469;-66
2021/04/30 07:38:56;;;;;;;8.67;7.67;;;16.20;72.90;;;;;;5091779;28;20481;-66
2021/04/30 07:41:23;;;;;;;8.10;7.13;;;16.50;68.00;;;;;;5093675;28;20784;-66
2021/04/30 07:43:50;;;;;;;8.50;6.63;;;16.60;65.00;;;;;;5092066;28;20475;-66
2021/04/30 07:46:17;;;;;;;7.57;6.70;;;16.70;63.30;;;;;;5083585;28;20440;-66
2021/04/30 07:48:44;;;;;;;7.63;6.37;;;16.90;61.60;;;;;;5073195;28;20447;-66
2021/04/30 07:51:12;;;;;;;9.67;7.97;;;17.10;61.00;;;;;;5081126;28;20443;-67
2021/04/30 07:53:40;;;;;;;8.27;7.30;;;17.30;62.90;;;;;;5092693;28;20483;-67
2021/04/30 07:56:09;;;;;;;8.50;7.17;;;17.50;59.90;;;;;;5086116;28;20428;-66
2021/04/30 07:58:37;;;;;;;7.87;6.77;;;17.60;60.10;;;;;;5073100;28;20942;-66
2021/04/30 08:01:04;;;;;;;7.40;6.33;;;17.70;58.90;;;;;;5073521;28;20443;-66
2021/04/30 08:03:30;;;;;;;8.90;7.87;;;17.60;57.40;;;;;;5072787;28;20476;-66
2021/04/30 08:05:57;;;;;;;9.97;8.97;;;17.70;58.10;;;;;;5073640;28;20452;-66
2021/04/30 08:08:24;;;;;;;7.27;6.57;;;18.00;61.80;;;;;;5083365;28;20841;-66
2021/04/30 08:10:51;;;;;;;9.50;7.87;;;18.30;59.40;;;;;;5092152;28;20431;-67
2021/04/30 08:13:18;;;;;;;8.30;7.30;;;18.50;58.80;;;;;;5072699;28;20439;-68
2021/04/30 08:15:45;;;;;;;8.07;6.27;;;18.60;57.70;;;;;;5077531;28;20829;-66
2021/04/30 08:18:13;;;;;;;6.80;6.10;;;18.60;55.80;;;;;;5089113;28;20435;-66
2021/04/30 08:20:40;;;;;;;7.17;4.93;;;18.80;56.20;;;;;;5090942;28;20450;-66
2021/04/30 08:23:07;;;;;;;8.67;4.67;;;18.90;55.70;;;;;;5089338;28;20486;-66
2021/04/30 08:25:33;;;;;;;6.20;5.10;;;19.00;54.60;;;;;;5090872;28;20522;-67
2021/04/30 08:28:03;;;;;;;6.23;5.30;;;18.80;53.30;;;;;;5089630;28;20830;-67
2021/04/30 08:30:31;;;;;;;6.30;5.50;;;18.70;53.40;;;;;;5090836;28;20439;-66
2021/04/30 08:32:57;;;;;;;7.90;5.50;;;18.60;53.80;;;;;;5090450;28;20521;-66
2021/04/30 08:35:24;;;;;;;6.93;5.53;;;18.80;56.60;;;;;;5090234;28;20446;-67
2021/04/30 08:37:50;;;;;;;8.70;4.80;;;19.00;56.30;;;;;;5090111;28;20463;-66
2021/04/30 08:40:17;;;;;;;5.30;4.33;;;19.30;54.90;;;;;;5090445;28;20494;-66
2021/04/30 08:42:47;;;;;;;5.83;5.17;;;19.30;52.40;;;;;;5090755;28;20482;-66
2021/04/30 08:45:15;;;;;;;6.87;4.30;;;19.30;51.40;;;;;;5087305;28;20439;-67
2021/04/30 08:47:45;;;;;;;3.77;3.37;;;19.30;54.00;;;;;;5091322;28;20435;-67
2021/04/30 08:50:12;;;;;;;4.87;3.90;;;19.50;52.00;;;;;;5090610;28;20439;-66
2021/04/30 08:52:39;;;;;;;4.40;3.30;;;19.50;52.20;;;;;;5088591;28;20513;-67
2021/04/30 08:55:12;;;;;;;6.30;3.80;;;19.40;51.20;;;;;;5090792;28;20439;-66
2021/04/30 08:57:40;;;;;;;3.90;3.17;;;19.30;50.90;;;;;;5088262;28;20439;-68
2021/04/30 09:00:10;;;;;;;4.70;3.60;;;19.50;53.10;;;;;;5087678;28;20443;-67
2021/04/30 09:02:40;;;;;;;5.10;3.90;;;19.60;54.10;;;;;;5088053;28;20479;-67
2021/04/30 09:05:10;;;;;;;3.63;3.17;;;19.70;52.70;;;;;;5089612;28;20447;-67
2021/04/30 09:07:41;;;;;;;5.93;3.37;;;19.70;50.50;;;;;;5085929;28;20442;-67
2021/04/30 09:10:12;;;;;;;4.97;3.90;;;19.70;52.60;;;;;;5087994;28;20798;-67
2021/04/30 09:12:39;;;;;;;4.37;2.90;;;19.70;50.50;;;;;;5086067;28;20840;-67
2021/04/30 09:15:09;;;;;;;4.37;2.93;;;19.70;52.20;;;;;;5091519;28;20496;-67
2021/04/30 09:17:36;;;;;;;6.30;3.30;;;19.80;50.00;;;;;;5092650;28;20461;-67
2021/04/30 09:20:04;;;;;;;4.23;3.07;;;19.60;51.50;;;;;;5095456;28;20458;-71
2021/04/30 09:22:34;;;;;;;3.10;2.80;;;19.70;50.70;;;;;;5093926;28;20470;-67
2021/04/30 09:25:04;;;;;;;5.60;3.33;;;19.70;51.70;;;;;;5094758;28;20496;-67
2021/04/30 09:27:33;;;;;;;3.90;3.03;;;19.60;50.40;;;;;;5091686;28;20442;-67
2021/04/30 09:30:16;;;;;;;3.60;2.83;;;19.40;50.70;;;;;;5093895;28;20435;-67
2021/04/30 09:33:17;;;;;;;3.87;2.97;;;19.20;50.50;;;;;;5090810;28;20470;-68
2021/04/30 09:35:44;;;;;;;3.30;2.67;;;19.30;51.80;;;;;;5009480;28;20437;-67
2021/04/30 09:38:15;;;;;;;3.77;2.90;;;19.30;51.00;;;;;;5012709;28;20446;-67
2021/04/30 09:40:43;;;;;;;3.83;2.80;;;19.50;52.30;;;;;;5052599;28;20434;-67
2021/04/30 09:43:11;;;;;;;3.73;2.40;;;19.80;52.10;;;;;;5094735;28;20502;-67
2021/04/30 09:45:39;;;;;;;6.67;2.90;;;20.20;52.60;;;;;;5093324;28;20469;-68
2021/04/30 09:48:09;;;;;;;3.90;2.50;;;20.60;53.70;;;;;;5094038;28;20431;-67
2021/04/30 09:50:42;;;;;;;3.03;2.50;;;20.70;50.00;;;;;;5092673;28;20504;-67
2021/04/30 09:53:11;;;;;;;3.93;2.77;;;20.90;50.00;;;;;;5092501;28;20466;-69
2021/04/30 09:55:45;;;;;;;3.60;3.10;;;21.00;48.70;;;;;;5090152;28;20447;-67
2021/04/30 09:58:20;;;;;;;4.40;3.00;;;21.00;48.20;;;;;;5092451;28;20446;-67
2021/04/30 10:00:50;;;;;;;7.13;2.63;;;20.90;48.80;;;;;;5092779;28;20438;-67
2021/04/30 10:03:19;;;;;;;3.60;3.17;;;20.90;49.50;;;;;;5090842;28;20511;-68
2021/04/30 10:06:01;;;;;;;4.67;2.60;;;20.90;48.90;;;;;;5092635;28;20447;-68
2021/04/30 10:08:30;;;;;;;3.27;2.40;;;20.80;48.60;;;;;;5090711;28;20446;-67
2021/04/30 10:11:00;;;;;;;3.50;2.87;;;20.70;49.70;;;;;;5092244;28;20435;-70
2021/04/30 10:13:26;;;;;;;3.03;2.70;;;20.80;49.30;;;;;;5090120;28;20790;-68
2021/04/30 10:15:53;;;;;;;3.80;3.17;;;20.90;50.00;;;;;;5089490;28;20447;-67
2021/04/30 10:18:19;;;;;;;5.53;2.90;;;21.00;50.50;;;;;;5089433;28;20936;-71
2021/04/30 10:20:47;;;;;;;4.13;2.60;;;21.30;50.40;;;;;;5091776;28;20451;-68
2021/04/30 10:23:19;;;;;;;3.40;2.77;;;21.60;49.40;;;;;;5089990;28;20844;-68
2021/04/30 10:25:50;;;;;;;3.80;2.57;;;21.90;48.70;;;;;;5092582;28;20435;-67
2021/04/30 10:28:22;;;;;;;3.90;2.90;;;22.10;47.30;;;;;;5087714;28;20438;-71
2021/04/30 10:30:56;;;;;;;3.03;2.30;;;22.10;46.20;;;;;;5090184;28;20849;-69
2021/04/30 10:33:28;;;;;;;3.50;2.40;;;22.30;48.90;;;;;;5091271;28;20451;-68
2021/04/30 10:36:02;;;;;;;3.00;2.07;;;22.60;48.50;;;;;;5090260;28;20439;-68
2021/04/30 10:38:42;;;;;;;5.33;2.30;;;22.80;48.60;;;;;;5091718;28;20526;-70
2021/04/30 10:41:13;;;;;;;3.30;2.70;;;23.00;47.50;;;;;;5092570;28;20447;-68
2021/04/30 10:43:42;;;;;;;3.20;2.57;;;23.10;46.50;;;;;;5091099;28;20482;-68
2021/04/30 10:46:22;;;;;;;2.87;2.20;;;23.00;45.20;;;;;;5091842;28;20471;-68
2021/04/30 10:49:19;;;;;;;3.50;2.80;;;23.00;45.20;;;;;;5088750;28;20432;-68
2021/04/30 10:52:20;;;;;;;4.33;2.90;;;23.10;44.00;;;;;;5090544;28;20445;-68
2021/04/30 10:55:01;;;;;;;2.97;2.57;;;23.00;43.80;;;;;;5088276;28;20439;-69
2021/04/30 10:57:45;;;;;;;4.23;2.50;;;23.10;45.80;;;;;;5093066;28;20439;-67
2021/04/30 11:00:12;;;;;;;3.60;2.40;;;23.10;45.50;;;;;;5092887;28;20917;-68
2021/04/30 11:02:39;;;;;;;2.57;2.10;;;23.30;44.30;;;;;;5093040;28;20557;-68
2021/04/30 11:05:16;;;;;;;3.43;2.20;;;23.20;45.70;;;;;;5092898;28;20442;-69
2021/04/30 11:07:47;;;;;;;2.83;2.30;;;23.30;45.60;;;;;;5090136;28;20434;-68
2021/04/30 11:10:43;;;;;;;3.47;2.23;;;23.40;45.00;;;;;;5093027;28;20427;-67
2021/04/30 11:13:14;;;;;;;3.27;2.67;;;23.30;44.60;;;;;;5092851;28;20436;-67
2021/04/30 11:15:59;;;;;;;4.40;2.63;;;23.30;45.40;;;;;;5087742;28;20474;-68
2021/04/30 11:18:27;;;;;;;2.80;2.13;;;23.20;43.60;;;;;;5089703;28;20430;-67
2021/04/30 11:21:08;;;;;;;3.30;2.57;;;23.10;44.00;;;;;;5086617;28;20769;-67
2021/04/30 11:23:41;;;;;;;3.73;2.30;;;23.10;45.90;;;;;;5091036;28;20502;-68
2021/04/30 11:26:11;;;;;;;3.47;3.00;;;23.10;45.00;;;;;;5092980;28;20769;-68
2021/04/30 11:29:09;;;;;;;5.57;3.07;;;23.10;44.70;;;;;;5092541;28;20526;-67
2021/04/30 11:31:40;;;;;;;3.30;2.43;;;23.00;43.20;;;;;;5093075;28;20431;-67
2021/04/30 11:34:23;;;;;;;3.33;2.07;;;22.90;42.60;;;;;;5081736;28;20514;-66
2021/04/30 11:36:58;;;;;;;4.30;2.50;;;23.00;44.00;;;;;;5072987;28;20466;-67
2021/04/30 11:39:28;;;;;;;4.30;2.30;;;23.00;43.50;;;;;;5086666;28;20430;-67
2021/04/30 11:42:02;;;;;;;4.67;3.60;;;23.10;43.30;;;;;;5093519;28;20428;-67
2021/04/30 11:44:29;;;;;;;3.30;2.67;;;23.10;42.20;;;;;;5080332;28;20526;-67
2021/04/30 11:47:03;;;;;;;3.17;2.27;;;23.20;42.80;;;;;;5074534;28;20450;-67
2021/04/30 11:49:30;;;;;;;2.60;2.10;;;23.30;43.30;;;;;;5093771;28;20431;-67
2021/04/30 11:51:57;;;;;;;2.87;1.83;;;23.50;44.10;;;;;;5092335;28;20510;-67
2021/04/30 11:54:29;;;;;;;2.87;1.83;;;23.60;41.10;;;;;;5093604;28;20435;-68
2021/04/30 11:57:03;;;;;;;2.23;1.53;;;23.70;41.80;;;;;;5086605;28;20781;-67
2021/04/30 11:59:30;;;;;;;3.10;1.90;;;23.70;40.90;;;;;;5076988;28;20920;-66
2021/04/30 12:01:59;;;;;;;2.37;1.60;;;23.70;42.30;;;;;;5093785;28;20466;-67
2021/04/30 12:04:41;;;;;;;2.60;1.50;;;23.80;41.70;;;;;;5093650;28;20510;-67
2021/04/30 12:07:08;;;;;;;2.60;1.93;;;23.70;38.80;;;;;;5093238;28;20431;-67
2021/04/30 12:09:36;;;;;;;5.10;1.63;;;23.50;41.00;;;;;;5085631;28;20972;-67
2021/04/30 12:12:19;;;;;;;3.33;1.30;;;23.50;42.80;;;;;;5088552;28;20443;-67
2021/04/30 12:14:56;;;;;;;2.67;1.80;;;23.60;41.20;;;;;;5088194;28;20443;-67
2021/04/30 12:17:30;;;;;;;3.13;2.33;;;23.50;41.50;;;;;;5088007;28;20992;-68
2021/04/30 12:19:59;;;;;;;4.00;1.90;;;23.50;42.40;;;;;;5087832;28;20434;-67
2021/04/30 12:22:27;;;;;;;3.33;2.00;;;23.50;42.30;;;;;;5089393;28;20936;-67
2021/04/30 12:24:54;;;;;;;2.63;1.37;;;23.40;40.60;;;;;;5091246;28;20438;-68
2021/04/30 12:27:29;;;;;;;2.33;1.57;;;23.40;42.50;;;;;;5090953;28;20469;-67
2021/04/30 12:29:57;;;;;;;2.50;1.60;;;23.50;43.20;;;;;;5091242;28;20435;-67
2021/04/30 12:32:26;;;;;;;2.97;1.30;;;23.50;44.00;;;;;;5089470;28;20926;-68
2021/04/30 12:34:53;;;;;;;1.90;1.23;;;23.40;42.00;;;;;;5087393;28;20523;-67
2021/04/30 12:37:20;;;;;;;2.30;1.60;;;23.40;40.10;;;;;;5088858;28;20466;-67
2021/04/30 12:39:47;;;;;;;3.07;1.40;;;23.40;42.60;;;;;;5091124;28;20431;-67
2021/04/30 12:42:14;;;;;;;2.13;1.40;;;23.30;39.80;;;;;;5087357;28;20458;-67
2021/04/30 12:44:52;;;;;;;4.50;1.70;;;23.20;40.40;;;;;;5086433;28;20851;-67
2021/04/30 12:47:23;;;;;;;2.93;1.80;;;23.10;42.50;;;;;;5093806;28;20434;-68
2021/04/30 12:49:51;;;;;;;4.80;1.60;;;23.10;45.60;;;;;;5087155;28;20427;-67
2021/04/30 12:52:18;;;;;;;5.30;1.60;;;23.10;43.20;;;;;;5094796;28;20442;-67
2021/04/30 12:54:45;;;;;;;4.43;1.60;;;23.10;42.50;;;;;;5095158;28;20517;-68